sensor_id;sensor_type;location;lat;lon;timestamp;temperature;humidity
17174;DHT22;8702;48.130;-1.696;2023-02-11T00:01:21;9.00;99.90
17174;DHT22;8702;48.130;-1.696;2023-02-11T00:03:49;8.90;99.90
17174;DHT22;8702;48.130;-1.696;2023-02-11T00:06:18;9.00;99.90
17174;DHT22;8702;48.130;-1.696;2023-02-11T00:08:45;9.10;99.90
17174;DHT22;8702;48.130;-1.696;2023-02-11T00:11:14;9.10;99.90
17174;DHT22;8702;48.130;-1.696;2023-02-11T00:13:41;9.00;99.90
17174;DHT22;8702;48.130;-1.696;2023-02-11T00:16:10;8.80;99.90
17174;DHT22;8702;48.130;-1.696;2023-02-11T00:18:37;8.80;99.90
17174;DHT22;8702;48.130;-1.696;2023-02-11T00:21:08;8.80;99.90
17174;DHT22;8702;48.130;-1.696;2023-02-11T00:23:37;8.90;99.90
17174;DHT22;8702;48.130;-1.696;2023-02-11T00:26:11;8.90;99.90
17174;DHT22;8702;48.130;-1.696;2023-02-11T00:28:38;8.90;99.90
17174;DHT22;8702;48.130;-1.696;2023-02-11T00:31:05;8.90;99.90
17174;DHT22;8702;48.130;-1.696;2023-02-11T00:33:32;8.80;99.90
17174;DHT22;8702;48.130;-1.696;2023-02-11T00:36:03;8.80;99.90
17174;DHT22;8702;48.130;-1.696;2023-02-11T00:38:31;8.80;99.90
17174;DHT22;8702;48.130;-1.696;2023-02-11T00:40:59;8.80;99.90
17174;DHT22;8702;48.130;-1.696;2023-02-11T00:43:27;8.70;99.90
17174;DHT22;8702;48.130;-1.696;2023-02-11T00:45:53;8.70;99.90
17174;DHT22;8702;48.130;-1.696;2023-02-11T00:48:20;8.60;99.90
17174;DHT22;8702;48.130;-1.696;2023-02-11T00:50:47;8.60;99.90
17174;DHT22;8702;48.130;-1.696;2023-02-11T00:53:14;8.50;99.90
17174;DHT22;8702;48.130;-1.696;2023-02-11T00:55:41;8.40;99.90
17174;DHT22;8702;48.130;-1.696;2023-02-11T00:58:09;8.30;99.90
17174;DHT22;8702;48.130;-1.696;2023-02-11T01:00:36;8.30;99.90
17174;DHT22;8702;48.130;-1.696;2023-02-11T01:03:03;8.30;99.90
17174;DHT22;8702;48.130;-1.696;2023-02-11T01:05:30;8.20;99.90
17174;DHT22;8702;48.130;-1.696;2023-02-11T01:07:57;8.20;99.90
17174;DHT22;8702;48.130;-1.696;2023-02-11T01:10:24;8.20;99.90
17174;DHT22;8702;48.130;-1.696;2023-02-11T01:12:53;8.10;99.90
17174;DHT22;8702;48.130;-1.696;2023-02-11T01:15:21;8.10;99.90
17174;DHT22;8702;48.130;-1.696;2023-02-11T01:17:48;8.10;99.90
17174;DHT22;8702;48.130;-1.696;2023-02-11T01:20:18;8.00;99.90
17174;DHT22;8702;48.130;-1.696;2023-02-11T01:22:45;8.00;99.90
17174;DHT22;8702;48.130;-1.696;2023-02-11T01:25:12;8.00;99.90
17174;DHT22;8702;48.130;-1.696;2023-02-11T01:27:39;8.00;99.90
17174;DHT22;8702;48.130;-1.696;2023-02-11T01:30:07;7.90;99.90
17174;DHT22;8702;48.130;-1.696;2023-02-11T01:32:36;7.90;99.90
17174;DHT22;8702;48.130;-1.696;2023-02-11T01:35:03;7.90;99.90
17174;DHT22;8702;48.130;-1.696;2023-02-11T01:37:31;7.90;99.90
17174;DHT22;8702;48.130;-1.696;2023-02-11T01:39:59;7.80;99.90
17174;DHT22;8702;48.130;-1.696;2023-02-11T01:42:26;7.80;99.90
17174;DHT22;8702;48.130;-1.696;2023-02-11T01:44:54;7.80;99.90
17174;DHT22;8702;48.130;-1.696;2023-02-11T01:52:26;7.60;99.90
17174;DHT22;8702;48.130;-1.696;2023-02-11T01:54:58;7.50;99.90
17174;DHT22;8702;48.130;-1.696;2023-02-11T01:57:46;7.40;99.90
17174;DHT22;8702;48.130;-1.696;2023-02-11T02:00:17;7.40;99.90
17174;DHT22;8702;48.130;-1.696;2023-02-11T02:02:49;7.40;99.90
17174;DHT22;8702;48.130;-1.696;2023-02-11T02:05:34;7.50;99.90
17174;DHT22;8702;48.130;-1.696;2023-02-11T02:08:10;7.50;99.90
17174;DHT22;8702;48.130;-1.696;2023-02-11T02:10:42;7.40;99.90
17174;DHT22;8702;48.130;-1.696;2023-02-11T02:13:09;7.40;99.90
17174;DHT22;8702;48.130;-1.696;2023-02-11T02:15:38;7.30;99.90
17174;DHT22;8702;48.130;-1.696;2023-02-11T02:18:34;7.30;99.90
17174;DHT22;8702;48.130;-1.696;2023-02-11T02:24:31;7.30;99.90
17174;DHT22;8702;48.130;-1.696;2023-02-11T02:27:19;7.20;99.90
17174;DHT22;8702;48.130;-1.696;2023-02-11T02:30:10;7.20;99.90
17174;DHT22;8702;48.130;-1.696;2023-02-11T02:35:42;7.10;99.90
17174;DHT22;8702;48.130;-1.696;2023-02-11T02:38:16;7.10;99.90
17174;DHT22;8702;48.130;-1.696;2023-02-11T02:40:47;7.10;99.90
17174;DHT22;8702;48.130;-1.696;2023-02-11T02:43:16;7.00;99.90
17174;DHT22;8702;48.130;-1.696;2023-02-11T02:45:44;7.00;99.90
17174;DHT22;8702;48.130;-1.696;2023-02-11T02:48:24;7.00;99.90
17174;DHT22;8702;48.130;-1.696;2023-02-11T02:50:58;7.00;99.90
17174;DHT22;8702;48.130;-1.696;2023-02-11T02:53:43;7.00;99.90
17174;DHT22;8702;48.130;-1.696;2023-02-11T02:56:23;6.90;99.90
17174;DHT22;8702;48.130;-1.696;2023-02-11T02:59:08;6.80;99.90
17174;DHT22;8702;48.130;-1.696;2023-02-11T03:01:42;6.80;99.90
17174;DHT22;8702;48.130;-1.696;2023-02-11T03:04:17;6.70;99.90
17174;DHT22;8702;48.130;-1.696;2023-02-11T03:06:52;6.80;99.90
17174;DHT22;8702;48.130;-1.696;2023-02-11T03:09:24;6.70;99.90
17174;DHT22;8702;48.130;-1.696;2023-02-11T03:11:53;6.80;99.90
17174;DHT22;8702;48.130;-1.696;2023-02-11T03:14:21;6.70;99.90
17174;DHT22;8702;48.130;-1.696;2023-02-11T03:16:53;6.70;99.90
17174;DHT22;8702;48.130;-1.696;2023-02-11T03:19:26;6.70;99.90
17174;DHT22;8702;48.130;-1.696;2023-02-11T03:21:55;6.70;99.90
17174;DHT22;8702;48.130;-1.696;2023-02-11T03:24:26;6.60;99.90
17174;DHT22;8702;48.130;-1.696;2023-02-11T03:26:56;6.50;99.90
17174;DHT22;8702;48.130;-1.696;2023-02-11T03:29:31;6.40;99.90
17174;DHT22;8702;48.130;-1.696;2023-02-11T03:32:04;6.50;99.90
17174;DHT22;8702;48.130;-1.696;2023-02-11T03:34:39;6.40;99.90
17174;DHT22;8702;48.130;-1.696;2023-02-11T03:37:12;6.30;99.90
17174;DHT22;8702;48.130;-1.696;2023-02-11T03:39:44;6.30;99.90
17174;DHT22;8702;48.130;-1.696;2023-02-11T03:42:13;6.20;99.90
17174;DHT22;8702;48.130;-1.696;2023-02-11T03:44:46;6.00;99.90
17174;DHT22;8702;48.130;-1.696;2023-02-11T03:47:17;6.00;99.90
17174;DHT22;8702;48.130;-1.696;2023-02-11T03:49:48;5.90;99.90
17174;DHT22;8702;48.130;-1.696;2023-02-11T03:52:17;5.90;99.90
17174;DHT22;8702;48.130;-1.696;2023-02-11T03:54:47;5.90;99.90
17174;DHT22;8702;48.130;-1.696;2023-02-11T03:57:16;5.80;99.90
17174;DHT22;8702;48.130;-1.696;2023-02-11T03:59:52;5.80;99.90
17174;DHT22;8702;48.130;-1.696;2023-02-11T04:02:20;5.70;99.90
17174;DHT22;8702;48.130;-1.696;2023-02-11T04:04:48;5.70;99.90
17174;DHT22;8702;48.130;-1.696;2023-02-11T04:07:15;5.60;99.90
17174;DHT22;8702;48.130;-1.696;2023-02-11T04:09:42;5.50;99.90
17174;DHT22;8702;48.130;-1.696;2023-02-11T04:12:09;5.50;99.90
17174;DHT22;8702;48.130;-1.696;2023-02-11T04:14:36;5.60;99.90
17174;DHT22;8702;48.130;-1.696;2023-02-11T04:17:04;5.60;99.90
17174;DHT22;8702;48.130;-1.696;2023-02-11T04:19:31;5.60;99.90
17174;DHT22;8702;48.130;-1.696;2023-02-11T04:21:59;5.60;99.90
17174;DHT22;8702;48.130;-1.696;2023-02-11T04:24:26;5.60;99.90
17174;DHT22;8702;48.130;-1.696;2023-02-11T04:26:53;5.40;99.90
17174;DHT22;8702;48.130;-1.696;2023-02-11T04:29:20;5.40;99.90
17174;DHT22;8702;48.130;-1.696;2023-02-11T04:31:47;5.80;99.90
17174;DHT22;8702;48.130;-1.696;2023-02-11T04:34:14;5.40;99.90
17174;DHT22;8702;48.130;-1.696;2023-02-11T04:36:42;5.40;99.90
17174;DHT22;8702;48.130;-1.696;2023-02-11T04:39:10;5.30;99.90
17174;DHT22;8702;48.130;-1.696;2023-02-11T04:41:39;5.30;99.90
17174;DHT22;8702;48.130;-1.696;2023-02-11T04:44:06;5.30;99.90
17174;DHT22;8702;48.130;-1.696;2023-02-11T04:46:33;5.30;99.90
17174;DHT22;8702;48.130;-1.696;2023-02-11T04:49:00;5.30;99.90
17174;DHT22;8702;48.130;-1.696;2023-02-11T04:51:27;5.20;99.90
17174;DHT22;8702;48.130;-1.696;2023-02-11T04:53:54;5.10;99.90
17174;DHT22;8702;48.130;-1.696;2023-02-11T04:56:22;5.10;99.90
17174;DHT22;8702;48.130;-1.696;2023-02-11T04:58:49;5.00;99.90
17174;DHT22;8702;48.130;-1.696;2023-02-11T05:01:16;5.10;99.90
17174;DHT22;8702;48.130;-1.696;2023-02-11T05:03:43;4.90;99.90
17174;DHT22;8702;48.130;-1.696;2023-02-11T05:06:10;4.90;99.90
17174;DHT22;8702;48.130;-1.696;2023-02-11T05:08:37;4.90;99.90
17174;DHT22;8702;48.130;-1.696;2023-02-11T05:11:05;4.80;99.90
17174;DHT22;8702;48.130;-1.696;2023-02-11T05:13:34;4.70;99.90
17174;DHT22;8702;48.130;-1.696;2023-02-11T05:16:01;4.80;99.90
17174;DHT22;8702;48.130;-1.696;2023-02-11T05:18:28;4.60;99.90
17174;DHT22;8702;48.130;-1.696;2023-02-11T05:20:55;4.60;99.90
17174;DHT22;8702;48.130;-1.696;2023-02-11T05:23:22;4.50;99.90
17174;DHT22;8702;48.130;-1.696;2023-02-11T05:25:49;4.40;99.90
17174;DHT22;8702;48.130;-1.696;2023-02-11T05:28:16;4.40;99.90
17174;DHT22;8702;48.130;-1.696;2023-02-11T05:30:44;4.30;99.90
17174;DHT22;8702;48.130;-1.696;2023-02-11T05:33:11;4.20;99.90
17174;DHT22;8702;48.130;-1.696;2023-02-11T05:35:38;4.20;99.90
17174;DHT22;8702;48.130;-1.696;2023-02-11T05:38:05;4.10;99.90
17174;DHT22;8702;48.130;-1.696;2023-02-11T05:40:32;4.10;99.90
17174;DHT22;8702;48.130;-1.696;2023-02-11T05:42:59;4.00;99.90
17174;DHT22;8702;48.130;-1.696;2023-02-11T05:45:26;3.90;99.90
17174;DHT22;8702;48.130;-1.696;2023-02-11T05:47:54;3.90;99.90
17174;DHT22;8702;48.130;-1.696;2023-02-11T05:50:21;3.80;99.90
17174;DHT22;8702;48.130;-1.696;2023-02-11T05:52:48;3.90;99.90
17174;DHT22;8702;48.130;-1.696;2023-02-11T05:55:15;3.80;99.90
17174;DHT22;8702;48.130;-1.696;2023-02-11T05:57:42;3.80;99.90
17174;DHT22;8702;48.130;-1.696;2023-02-11T06:00:10;3.80;99.90
17174;DHT22;8702;48.130;-1.696;2023-02-11T06:02:37;3.70;99.90
17174;DHT22;8702;48.130;-1.696;2023-02-11T06:05:06;3.60;99.90
17174;DHT22;8702;48.130;-1.696;2023-02-11T06:07:33;3.60;99.90
17174;DHT22;8702;48.130;-1.696;2023-02-11T06:10:00;3.60;99.90
17174;DHT22;8702;48.130;-1.696;2023-02-11T06:12:27;3.60;99.90
17174;DHT22;8702;48.130;-1.696;2023-02-11T06:14:53;3.60;99.90
17174;DHT22;8702;48.130;-1.696;2023-02-11T06:17:20;3.60;99.90
17174;DHT22;8702;48.130;-1.696;2023-02-11T06:19:47;3.60;99.90
17174;DHT22;8702;48.130;-1.696;2023-02-11T06:22:16;3.60;99.90
17174;DHT22;8702;48.130;-1.696;2023-02-11T06:24:43;3.50;99.90
17174;DHT22;8702;48.130;-1.696;2023-02-11T06:27:10;3.60;99.90
17174;DHT22;8702;48.130;-1.696;2023-02-11T06:29:36;3.40;99.90
17174;DHT22;8702;48.130;-1.696;2023-02-11T06:32:03;3.40;99.90
17174;DHT22;8702;48.130;-1.696;2023-02-11T06:34:30;3.40;99.90
17174;DHT22;8702;48.130;-1.696;2023-02-11T06:36:57;3.40;99.90
17174;DHT22;8702;48.130;-1.696;2023-02-11T06:39:25;3.40;99.90
17174;DHT22;8702;48.130;-1.696;2023-02-11T06:41:52;3.30;99.90
17174;DHT22;8702;48.130;-1.696;2023-02-11T06:44:19;3.30;99.90
17174;DHT22;8702;48.130;-1.696;2023-02-11T06:46:47;3.30;99.90
17174;DHT22;8702;48.130;-1.696;2023-02-11T06:49:14;3.30;99.90
17174;DHT22;8702;48.130;-1.696;2023-02-11T06:51:41;3.30;99.90
17174;DHT22;8702;48.130;-1.696;2023-02-11T06:54:09;3.30;99.90
17174;DHT22;8702;48.130;-1.696;2023-02-11T06:56:39;3.30;99.90
17174;DHT22;8702;48.130;-1.696;2023-02-11T06:59:06;3.30;99.90
17174;DHT22;8702;48.130;-1.696;2023-02-11T07:01:33;3.30;99.90
17174;DHT22;8702;48.130;-1.696;2023-02-11T07:04:00;3.30;99.90
17174;DHT22;8702;48.130;-1.696;2023-02-11T07:06:27;3.40;99.90
17174;DHT22;8702;48.130;-1.696;2023-02-11T07:08:55;3.40;99.90
17174;DHT22;8702;48.130;-1.696;2023-02-11T07:11:23;3.40;99.90
17174;DHT22;8702;48.130;-1.696;2023-02-11T07:13:54;3.30;99.90
17174;DHT22;8702;48.130;-1.696;2023-02-11T07:16:22;3.40;99.90
17174;DHT22;8702;48.130;-1.696;2023-02-11T07:18:49;3.40;99.90
17174;DHT22;8702;48.130;-1.696;2023-02-11T07:21:17;3.50;99.90
17174;DHT22;8702;48.130;-1.696;2023-02-11T07:23:45;3.40;99.90
17174;DHT22;8702;48.130;-1.696;2023-02-11T07:26:15;3.50;99.90
17174;DHT22;8702;48.130;-1.696;2023-02-11T07:28:43;3.50;99.90
17174;DHT22;8702;48.130;-1.696;2023-02-11T07:31:14;3.50;99.90
17174;DHT22;8702;48.130;-1.696;2023-02-11T07:33:42;3.60;99.90
17174;DHT22;8702;48.130;-1.696;2023-02-11T07:36:11;3.50;99.90
17174;DHT22;8702;48.130;-1.696;2023-02-11T07:38:39;3.60;99.90
17174;DHT22;8702;48.130;-1.696;2023-02-11T07:41:08;3.60;99.90
17174;DHT22;8702;48.130;-1.696;2023-02-11T07:43:37;3.60;99.90
17174;DHT22;8702;48.130;-1.696;2023-02-11T07:46:04;3.70;99.90
17174;DHT22;8702;48.130;-1.696;2023-02-11T07:48:33;3.70;99.90
17174;DHT22;8702;48.130;-1.696;2023-02-11T07:51:07;3.70;99.90
17174;DHT22;8702;48.130;-1.696;2023-02-11T07:53:35;3.70;99.90
17174;DHT22;8702;48.130;-1.696;2023-02-11T07:56:03;3.70;99.90
17174;DHT22;8702;48.130;-1.696;2023-02-11T07:58:31;3.60;99.90
17174;DHT22;8702;48.130;-1.696;2023-02-11T08:01:00;3.60;99.90
17174;DHT22;8702;48.130;-1.696;2023-02-11T08:03:28;3.60;99.90
17174;DHT22;8702;48.130;-1.696;2023-02-11T08:05:56;3.60;99.90
17174;DHT22;8702;48.130;-1.696;2023-02-11T08:08:25;3.60;99.90
17174;DHT22;8702;48.130;-1.696;2023-02-11T08:10:53;3.70;99.90
17174;DHT22;8702;48.130;-1.696;2023-02-11T08:13:20;3.70;99.90
17174;DHT22;8702;48.130;-1.696;2023-02-11T08:15:46;3.70;99.90
17174;DHT22;8702;48.130;-1.696;2023-02-11T08:18:13;3.70;99.90
17174;DHT22;8702;48.130;-1.696;2023-02-11T08:20:40;3.90;99.90
17174;DHT22;8702;48.130;-1.696;2023-02-11T08:23:08;4.00;99.90
17174;DHT22;8702;48.130;-1.696;2023-02-11T08:25:35;4.00;99.90
17174;DHT22;8702;48.130;-1.696;2023-02-11T08:28:02;4.00;99.90
17174;DHT22;8702;48.130;-1.696;2023-02-11T08:30:29;4.10;99.90
17174;DHT22;8702;48.130;-1.696;2023-02-11T08:32:56;4.10;99.90
17174;DHT22;8702;48.130;-1.696;2023-02-11T08:35:23;4.10;99.90
17174;DHT22;8702;48.130;-1.696;2023-02-11T08:37:50;4.10;99.90
17174;DHT22;8702;48.130;-1.696;2023-02-11T08:40:19;4.10;99.90
17174;DHT22;8702;48.130;-1.696;2023-02-11T08:42:46;4.10;99.90
17174;DHT22;8702;48.130;-1.696;2023-02-11T08:45:13;4.20;99.90
17174;DHT22;8702;48.130;-1.696;2023-02-11T08:47:40;4.20;99.90
17174;DHT22;8702;48.130;-1.696;2023-02-11T08:50:07;4.30;99.90
17174;DHT22;8702;48.130;-1.696;2023-02-11T08:52:35;4.30;99.90
17174;DHT22;8702;48.130;-1.696;2023-02-11T08:55:03;4.40;99.90
17174;DHT22;8702;48.130;-1.696;2023-02-11T08:57:31;4.40;99.90
17174;DHT22;8702;48.130;-1.696;2023-02-11T08:59:58;4.50;99.90
17174;DHT22;8702;48.130;-1.696;2023-02-11T09:07:19;4.70;99.90
17174;DHT22;8702;48.130;-1.696;2023-02-11T09:09:46;4.60;99.90
17174;DHT22;8702;48.130;-1.696;2023-02-11T10:07:05;5.70;99.90
17174;DHT22;8702;48.130;-1.696;2023-02-11T10:09:45;5.70;99.90
17174;DHT22;8702;48.130;-1.696;2023-02-11T10:12:25;5.70;99.90
17174;DHT22;8702;48.130;-1.696;2023-02-11T10:15:13;5.70;99.90
17174;DHT22;8702;48.130;-1.696;2023-02-11T10:17:52;5.80;99.90
17174;DHT22;8702;48.130;-1.696;2023-02-11T10:20:27;5.80;99.90
17174;DHT22;8702;48.130;-1.696;2023-02-11T10:22:58;5.90;99.90
17174;DHT22;8702;48.130;-1.696;2023-02-11T10:25:32;6.00;99.90
17174;DHT22;8702;48.130;-1.696;2023-02-11T10:37:58;6.20;99.90
17174;DHT22;8702;48.130;-1.696;2023-02-11T10:40:28;6.30;99.90
17174;DHT22;8702;48.130;-1.696;2023-02-11T10:42:58;6.30;99.90
17174;DHT22;8702;48.130;-1.696;2023-02-11T10:45:31;6.40;99.90
17174;DHT22;8702;48.130;-1.696;2023-02-11T10:48:00;6.40;99.90
17174;DHT22;8702;48.130;-1.696;2023-02-11T10:50:30;6.60;99.90
17174;DHT22;8702;48.130;-1.696;2023-02-11T10:53:16;6.70;99.90
17174;DHT22;8702;48.130;-1.696;2023-02-11T10:55:53;6.80;99.90
17174;DHT22;8702;48.130;-1.696;2023-02-11T10:58:24;6.90;99.90
17174;DHT22;8702;48.130;-1.696;2023-02-11T11:00:52;7.00;99.90
17174;DHT22;8702;48.130;-1.696;2023-02-11T11:03:23;7.10;99.90
17174;DHT22;8702;48.130;-1.696;2023-02-11T11:05:52;7.20;99.90
17174;DHT22;8702;48.130;-1.696;2023-02-11T11:08:20;7.20;99.90
17174;DHT22;8702;48.130;-1.696;2023-02-11T11:10:48;7.30;99.90
17174;DHT22;8702;48.130;-1.696;2023-02-11T11:13:30;7.40;99.90
17174;DHT22;8702;48.130;-1.696;2023-02-11T11:16:14;7.50;99.90
17174;DHT22;8702;48.130;-1.696;2023-02-11T11:18:44;7.60;99.90
17174;DHT22;8702;48.130;-1.696;2023-02-11T11:23:47;7.70;99.90
17174;DHT22;8702;48.130;-1.696;2023-02-11T11:26:15;7.80;99.90
17174;DHT22;8702;48.130;-1.696;2023-02-11T11:28:51;7.80;99.90
17174;DHT22;8702;48.130;-1.696;2023-02-11T11:31:21;7.90;99.90
17174;DHT22;8702;48.130;-1.696;2023-02-11T11:33:52;8.10;99.90
17174;DHT22;8702;48.130;-1.696;2023-02-11T11:36:21;8.00;99.90
17174;DHT22;8702;48.130;-1.696;2023-02-11T11:38:51;8.10;99.90
17174;DHT22;8702;48.130;-1.696;2023-02-11T11:43:56;8.30;99.90
17174;DHT22;8702;48.130;-1.696;2023-02-11T11:49:03;8.50;99.90
17174;DHT22;8702;48.130;-1.696;2023-02-11T11:51:34;8.50;99.90
17174;DHT22;8702;48.130;-1.696;2023-02-11T11:56:34;8.70;99.90
17174;DHT22;8702;48.130;-1.696;2023-02-11T11:59:10;8.80;99.90
17174;DHT22;8702;48.130;-1.696;2023-02-11T12:01:44;8.90;99.90
17174;DHT22;8702;48.130;-1.696;2023-02-11T12:04:32;9.00;99.90
17174;DHT22;8702;48.130;-1.696;2023-02-11T12:12:24;9.40;99.90
17174;DHT22;8702;48.130;-1.696;2023-02-11T12:15:05;9.50;99.90
17174;DHT22;8702;48.130;-1.696;2023-02-11T12:17:58;9.60;99.90
17174;DHT22;8702;48.130;-1.696;2023-02-11T12:20:37;9.40;99.90
17174;DHT22;8702;48.130;-1.696;2023-02-11T12:25:47;9.50;99.90
17174;DHT22;8702;48.130;-1.696;2023-02-11T12:28:27;9.50;99.90
17174;DHT22;8702;48.130;-1.696;2023-02-11T12:44:06;10.00;99.90
17174;DHT22;8702;48.130;-1.696;2023-02-11T12:46:38;10.00;99.90
17174;DHT22;8702;48.130;-1.696;2023-02-11T12:57:17;10.40;99.90
17174;DHT22;8702;48.130;-1.696;2023-02-11T12:59:52;10.50;99.90
17174;DHT22;8702;48.130;-1.696;2023-02-11T13:02:27;10.40;99.90
17174;DHT22;8702;48.130;-1.696;2023-02-11T13:12:29;10.60;99.90
17174;DHT22;8702;48.130;-1.696;2023-02-11T13:20:20;10.90;99.90
17174;DHT22;8702;48.130;-1.696;2023-02-11T13:25:29;11.10;99.90
17174;DHT22;8702;48.130;-1.696;2023-02-11T16:33:24;17.10;95.50
17174;DHT22;8702;48.130;-1.696;2023-02-11T16:35:51;16.90;97.20
17174;DHT22;8702;48.130;-1.696;2023-02-11T16:38:18;16.40;97.60
17174;DHT22;8702;48.130;-1.696;2023-02-11T16:40:46;15.60;98.20
17174;DHT22;8702;48.130;-1.696;2023-02-11T16:43:17;15.30;99.20
17174;DHT22;8702;48.130;-1.696;2023-02-11T16:45:44;15.10;99.30
17174;DHT22;8702;48.130;-1.696;2023-02-11T16:48:15;14.90;99.50
17174;DHT22;8702;48.130;-1.696;2023-02-11T16:50:45;14.60;99.90
17174;DHT22;8702;48.130;-1.696;2023-02-11T16:53:16;14.40;99.90
17174;DHT22;8702;48.130;-1.696;2023-02-11T16:55:45;14.20;99.90
17174;DHT22;8702;48.130;-1.696;2023-02-11T16:58:12;14.10;99.90
17174;DHT22;8702;48.130;-1.696;2023-02-11T17:00:39;14.00;99.90
17174;DHT22;8702;48.130;-1.696;2023-02-11T17:03:07;13.80;99.90
17174;DHT22;8702;48.130;-1.696;2023-02-11T17:05:34;13.70;99.90
17174;DHT22;8702;48.130;-1.696;2023-02-11T17:08:02;13.60;99.90
17174;DHT22;8702;48.130;-1.696;2023-02-11T17:10:30;13.60;99.90
17174;DHT22;8702;48.130;-1.696;2023-02-11T17:12:59;13.40;99.90
17174;DHT22;8702;48.130;-1.696;2023-02-11T17:15:26;13.30;99.90
17174;DHT22;8702;48.130;-1.696;2023-02-11T17:17:53;13.20;99.90
17174;DHT22;8702;48.130;-1.696;2023-02-11T17:20:20;13.10;99.90
17174;DHT22;8702;48.130;-1.696;2023-02-11T17:22:48;13.00;99.90
17174;DHT22;8702;48.130;-1.696;2023-02-11T17:25:15;12.90;99.90
17174;DHT22;8702;48.130;-1.696;2023-02-11T17:27:42;12.60;99.90
17174;DHT22;8702;48.130;-1.696;2023-02-11T17:30:13;12.40;99.90
17174;DHT22;8702;48.130;-1.696;2023-02-11T17:32:40;12.20;99.90
17174;DHT22;8702;48.130;-1.696;2023-02-11T17:35:07;12.10;99.90
17174;DHT22;8702;48.130;-1.696;2023-02-11T17:37:34;12.10;99.90
17174;DHT22;8702;48.130;-1.696;2023-02-11T17:40:01;12.10;99.90
17174;DHT22;8702;48.130;-1.696;2023-02-11T17:42:30;12.00;99.90
17174;DHT22;8702;48.130;-1.696;2023-02-11T17:44:57;12.00;99.90
17174;DHT22;8702;48.130;-1.696;2023-02-11T17:47:26;11.90;99.90
17174;DHT22;8702;48.130;-1.696;2023-02-11T17:49:52;11.70;99.90
17174;DHT22;8702;48.130;-1.696;2023-02-11T17:52:19;11.80;99.90
17174;DHT22;8702;48.130;-1.696;2023-02-11T17:54:52;11.70;99.90
17174;DHT22;8702;48.130;-1.696;2023-02-11T17:57:20;11.60;99.90
17174;DHT22;8702;48.130;-1.696;2023-02-11T17:59:47;11.60;99.90
17174;DHT22;8702;48.130;-1.696;2023-02-11T18:02:14;11.50;99.90
17174;DHT22;8702;48.130;-1.696;2023-02-11T18:04:42;11.40;99.90
17174;DHT22;8702;48.130;-1.696;2023-02-11T18:07:09;11.40;99.90
17174;DHT22;8702;48.130;-1.696;2023-02-11T18:09:36;11.40;99.90
17174;DHT22;8702;48.130;-1.696;2023-02-11T18:12:04;11.30;99.90
17174;DHT22;8702;48.130;-1.696;2023-02-11T18:14:31;11.30;99.90
17174;DHT22;8702;48.130;-1.696;2023-02-11T18:16:59;11.20;99.90
17174;DHT22;8702;48.130;-1.696;2023-02-11T18:19:26;11.20;99.90
17174;DHT22;8702;48.130;-1.696;2023-02-11T18:21:58;11.10;99.90
17174;DHT22;8702;48.130;-1.696;2023-02-11T18:24:24;11.10;99.90
17174;DHT22;8702;48.130;-1.696;2023-02-11T19:03:51;10.20;99.90
17174;DHT22;8702;48.130;-1.696;2023-02-11T19:06:20;10.10;99.90
17174;DHT22;8702;48.130;-1.696;2023-02-11T19:14:09;9.60;99.90
17174;DHT22;8702;48.130;-1.696;2023-02-11T19:16:36;9.70;99.90
17174;DHT22;8702;48.130;-1.696;2023-02-11T19:19:03;9.60;99.90
17174;DHT22;8702;48.130;-1.696;2023-02-11T19:21:31;9.50;99.90
17174;DHT22;8702;48.130;-1.696;2023-02-11T19:23:58;9.50;99.90
17174;DHT22;8702;48.130;-1.696;2023-02-11T19:26:37;9.50;99.90
17174;DHT22;8702;48.130;-1.696;2023-02-11T19:29:06;9.50;99.90
17174;DHT22;8702;48.130;-1.696;2023-02-11T19:31:34;9.40;99.90
17174;DHT22;8702;48.130;-1.696;2023-02-11T19:34:01;9.30;99.90
17174;DHT22;8702;48.130;-1.696;2023-02-11T19:36:28;9.30;99.90
17174;DHT22;8702;48.130;-1.696;2023-02-11T19:38:58;9.20;99.90
17174;DHT22;8702;48.130;-1.696;2023-02-11T19:41:25;9.20;99.90
17174;DHT22;8702;48.130;-1.696;2023-02-11T19:43:52;9.10;99.90
17174;DHT22;8702;48.130;-1.696;2023-02-11T19:46:23;9.10;99.90
17174;DHT22;8702;48.130;-1.696;2023-02-11T19:48:51;9.10;99.90
17174;DHT22;8702;48.130;-1.696;2023-02-11T19:51:19;9.00;99.90
17174;DHT22;8702;48.130;-1.696;2023-02-11T19:53:47;8.90;99.90
17174;DHT22;8702;48.130;-1.696;2023-02-11T19:56:16;8.90;99.90
17174;DHT22;8702;48.130;-1.696;2023-02-11T19:58:43;8.80;99.90
17174;DHT22;8702;48.130;-1.696;2023-02-11T20:01:12;8.80;99.90
17174;DHT22;8702;48.130;-1.696;2023-02-11T20:03:41;8.70;99.90
17174;DHT22;8702;48.130;-1.696;2023-02-11T20:06:12;8.60;99.90
17174;DHT22;8702;48.130;-1.696;2023-02-11T20:08:39;8.60;99.90
17174;DHT22;8702;48.130;-1.696;2023-02-11T20:11:07;8.60;99.90
17174;DHT22;8702;48.130;-1.696;2023-02-11T20:13:35;8.60;99.90
17174;DHT22;8702;48.130;-1.696;2023-02-11T20:16:07;8.50;99.90
17174;DHT22;8702;48.130;-1.696;2023-02-11T20:18:37;8.50;99.90
17174;DHT22;8702;48.130;-1.696;2023-02-11T20:21:09;8.50;99.90
17174;DHT22;8702;48.130;-1.696;2023-02-11T20:23:36;8.50;99.90
17174;DHT22;8702;48.130;-1.696;2023-02-11T20:26:06;8.40;99.90
17174;DHT22;8702;48.130;-1.696;2023-02-11T20:28:33;8.30;99.90
17174;DHT22;8702;48.130;-1.696;2023-02-11T20:31:00;8.30;99.90
17174;DHT22;8702;48.130;-1.696;2023-02-11T20:33:27;8.20;99.90
17174;DHT22;8702;48.130;-1.696;2023-02-11T20:35:56;8.20;99.90
17174;DHT22;8702;48.130;-1.696;2023-02-11T20:38:25;8.20;99.90
17174;DHT22;8702;48.130;-1.696;2023-02-11T20:40:52;8.20;99.90
17174;DHT22;8702;48.130;-1.696;2023-02-11T20:43:20;8.20;99.90
17174;DHT22;8702;48.130;-1.696;2023-02-11T20:45:47;8.30;99.90
17174;DHT22;8702;48.130;-1.696;2023-02-11T20:48:15;8.20;99.90
17174;DHT22;8702;48.130;-1.696;2023-02-11T20:50:42;8.20;99.90
17174;DHT22;8702;48.130;-1.696;2023-02-11T20:53:08;8.20;99.90
17174;DHT22;8702;48.130;-1.696;2023-02-11T20:55:38;8.20;99.90
17174;DHT22;8702;48.130;-1.696;2023-02-11T20:58:06;8.20;99.90
17174;DHT22;8702;48.130;-1.696;2023-02-11T21:00:34;8.10;99.90
17174;DHT22;8702;48.130;-1.696;2023-02-11T21:03:02;8.00;99.90
17174;DHT22;8702;48.130;-1.696;2023-02-11T21:05:29;8.00;99.90
17174;DHT22;8702;48.130;-1.696;2023-02-11T21:07:57;8.00;99.90
17174;DHT22;8702;48.130;-1.696;2023-02-11T21:10:24;8.00;99.90
17174;DHT22;8702;48.130;-1.696;2023-02-11T21:12:53;8.00;99.90
17174;DHT22;8702;48.130;-1.696;2023-02-11T21:15:20;7.90;99.90
17174;DHT22;8702;48.130;-1.696;2023-02-11T21:17:48;7.90;99.90
17174;DHT22;8702;48.130;-1.696;2023-02-11T21:20:16;7.90;99.90
17174;DHT22;8702;48.130;-1.696;2023-02-11T21:22:43;7.90;99.90
17174;DHT22;8702;48.130;-1.696;2023-02-11T21:25:10;7.80;99.90
17174;DHT22;8702;48.130;-1.696;2023-02-11T21:27:37;7.80;99.90
17174;DHT22;8702;48.130;-1.696;2023-02-11T21:30:07;7.70;99.90
17174;DHT22;8702;48.130;-1.696;2023-02-11T21:32:34;7.70;99.90
17174;DHT22;8702;48.130;-1.696;2023-02-11T21:35:01;7.60;99.90
17174;DHT22;8702;48.130;-1.696;2023-02-11T21:37:27;7.60;99.90
17174;DHT22;8702;48.130;-1.696;2023-02-11T21:39:55;7.70;99.90
17174;DHT22;8702;48.130;-1.696;2023-02-11T21:42:21;7.60;99.90
17174;DHT22;8702;48.130;-1.696;2023-02-11T21:44:48;7.60;99.90
17174;DHT22;8702;48.130;-1.696;2023-02-11T21:47:17;7.50;99.90
17174;DHT22;8702;48.130;-1.696;2023-02-11T21:49:43;7.50;99.90
17174;DHT22;8702;48.130;-1.696;2023-02-11T21:52:10;7.50;99.90
17174;DHT22;8702;48.130;-1.696;2023-02-11T21:54:39;7.50;99.90
17174;DHT22;8702;48.130;-1.696;2023-02-11T21:57:05;7.50;99.90
17174;DHT22;8702;48.130;-1.696;2023-02-11T21:59:32;7.50;99.90
17174;DHT22;8702;48.130;-1.696;2023-02-11T22:01:59;7.50;99.90